Charny, Canada
Current Conditions -  °F | °C
As of 6:00 PM on Saturday 25 Oct 2014 (Local Time) from CYQB Reporting Station
Rain Showers Rain Showers  
Wind Chill: 48°   Ceiling: 2900
Heat Index: 48°   Visibility: 8mi
Dew Point: 41°   Wind: 3mph
Humidity: 76%   Direction: NA
Pressure: 29.5"   Gusts: NA
Location:  46.72°N, 71.27°W
Report Text: CYQB 252200Z VRB03KT 8SM -SHRA BKN029 OVC100 09/05 A2950 RMK SC7AC1 VIS LWR W QUAD SLP993
Loading
Personal Weather Stations






























Interactive Weather Map
Tropical Storm Tracking
New forecast layout! Learn more

10-Day Weather Forecast

Advertisements
Track Severe Weather on mobile